Time;durP1;ratioP1;P1;durP2;ratioP2;P2;SDS_P1;SDS_P2;PMS_P1;PMS_P2;Temp;Humidity;BMP_temperature;BMP_pressure;BME280_temperature;BME280_humidity;BME280_pressure;Samples;Min_cycle;Max_cycle;Signal;HPM_P1;HPM_P2
2023/06/26 00:00:30;;;;;;;7.97;7.18;;;;;;;20.73;52.06;99134.13;5085765;28;20070;-69
2023/06/26 00:02:56;;;;;;;7.93;6.60;;;;;;;20.69;52.33;99145.38;5085991;28;20116;-69
2023/06/26 00:05:23;;;;;;;10.13;5.93;;;;;;;20.67;52.56;99140.13;5085343;28;20040;-69
2023/06/26 00:07:49;;;;;;;7.30;6.25;;;;;;;20.69;52.33;99146.22;5085601;28;20037;-68
2023/06/26 00:10:16;;;;;;;7.20;6.15;;;;;;;20.63;52.63;99145.97;5085305;28;20052;-68
2023/06/26 00:12:43;;;;;;;7.70;6.35;;;;;;;20.57;52.69;99146.59;5085269;28;20036;-69
2023/06/26 00:15:12;;;;;;;7.60;6.78;;;;;;;20.53;52.85;99146.06;5085882;28;20108;-69
2023/06/26 00:17:38;;;;;;;8.40;6.18;;;;;;;20.58;52.57;99149.13;5085519;28;20110;-69
2023/06/26 00:20:06;;;;;;;6.40;5.65;;;;;;;20.56;52.93;99152.97;5085393;28;20051;-69
2023/06/26 00:22:33;;;;;;;7.45;6.70;;;;;;;20.54;52.64;99149.59;5085161;28;20297;-69
2023/06/26 00:25:00;;;;;;;10.93;6.07;;;;;;;20.49;53.21;99150.91;5085503;28;20300;-69
2023/06/26 00:27:27;;;;;;;7.07;6.05;;;;;;;20.47;53.52;99149.34;5085155;28;20051;-68
2023/06/26 00:29:54;;;;;;;7.22;5.50;;;;;;;20.47;53.68;99150.19;5085954;28;20040;-68
2023/06/26 00:32:22;;;;;;;8.30;6.00;;;;;;;20.44;53.31;99142.44;5085393;28;20102;-68
2023/06/26 00:34:48;;;;;;;7.43;5.78;;;;;;;20.44;52.82;99144.28;5085623;28;20044;-68
2023/06/26 00:37:15;;;;;;;8.00;6.03;;;;;;;20.41;52.90;99150.81;5085318;28;20044;-68
2023/06/26 00:39:42;;;;;;;6.55;5.88;;;;;;;20.40;53.08;99149.13;5085546;28;20036;-69
2023/06/26 00:42:08;;;;;;;7.05;6.07;;;;;;;20.37;52.67;99149.41;5085077;28;20057;-69
2023/06/26 00:44:35;;;;;;;7.97;5.82;;;;;;;20.32;52.89;99145.50;5085288;28;20052;-69
2023/06/26 00:47:02;;;;;;;7.88;5.63;;;;;;;20.33;52.97;99150.72;5085524;28;20048;-69
2023/06/26 00:49:30;;;;;;;8.20;5.40;;;;;;;20.30;52.78;99150.19;5085512;28;20083;-69
2023/06/26 00:51:57;;;;;;;6.60;5.88;;;;;;;20.27;53.16;99153.16;5085188;28;20196;-69
2023/06/26 00:54:24;;;;;;;8.32;7.03;;;;;;;20.27;53.07;99153.16;5085206;28;20044;-69
2023/06/26 00:56:51;;;;;;;6.13;5.53;;;;;;;20.26;53.27;99146.09;5086417;28;20041;-69
2023/06/26 00:59:17;;;;;;;7.57;5.90;;;;;;;20.21;53.41;99143.81;5088493;28;20098;-69
2023/06/26 01:01:44;;;;;;;6.75;5.65;;;;;;;20.18;53.25;99139.59;5088860;28;20040;-69
2023/06/26 01:04:17;;;;;;;13.80;6.32;;;;;;;20.13;53.40;99133.81;5088565;28;20036;-69
2023/06/26 01:06:48;;;;;;;6.80;6.03;;;;;;;20.11;53.62;99143.88;5088442;28;20052;-69
2023/06/26 01:09:17;;;;;;;6.13;5.50;;;;;;;20.12;53.70;99140.19;5088430;28;20041;-69
2023/06/26 01:11:44;;;;;;;7.28;5.97;;;;;;;20.13;53.51;99136.50;5088588;28;20052;-69
2023/06/26 01:14:10;;;;;;;8.82;6.25;;;;;;;20.10;53.63;99136.81;5089418;28;20158;-69
2023/06/26 01:16:38;;;;;;;6.28;5.53;;;;;;;20.03;53.88;99134.88;5088554;28;20044;-69
2023/06/26 01:19:14;;;;;;;5.90;5.30;;;;;;;20.01;53.84;99132.31;5088406;28;20048;-68
2023/06/26 01:21:46;;;;;;;7.38;5.35;;;;;;;20.01;53.75;99118.88;5088459;28;20112;-68
2023/06/26 01:24:20;;;;;;;8.30;6.20;;;;;;;19.99;53.58;99128.94;5088130;28;20052;-69
2023/06/26 01:26:50;;;;;;;6.53;5.88;;;;;;;19.93;53.59;99131.38;5088695;28;20071;-69
2023/06/26 01:29:19;;;;;;;6.35;4.93;;;;;;;19.97;53.44;99135.47;5088372;28;20370;-69
2023/06/26 01:31:48;;;;;;;6.18;5.40;;;;;;;19.91;53.70;99131.53;5088307;28;20044;-69
2023/06/26 01:34:16;;;;;;;7.65;5.40;;;;;;;19.84;53.90;99130.44;5088178;28;20081;-69
2023/06/26 01:36:43;;;;;;;5.65;5.00;;;;;;;19.89;53.64;99121.91;5088221;28;20058;-69
2023/06/26 01:39:10;;;;;;;6.85;5.32;;;;;;;19.86;54.05;99123.06;5088091;28;20047;-69
2023/06/26 01:41:37;;;;;;;6.40;5.65;;;;;;;19.85;53.93;99116.84;5087635;28;20056;-69
2023/06/26 01:44:17;;;;;;;6.68;5.93;;;;;;;19.74;53.91;99127.75;5088032;28;20296;-69
2023/06/26 01:47:01;;;;;;;6.15;5.55;;;;;;;19.91;53.77;99123.47;5087711;28;20036;-69
2023/06/26 01:49:38;;;;;;;6.88;6.07;;;;;;;19.86;54.33;99123.06;5088010;28;20108;-69
2023/06/26 01:52:14;;;;;;;7.10;5.88;;;;;;;19.83;54.55;99117.97;5087649;28;20042;-69
2023/06/26 01:54:49;;;;;;;6.90;5.72;;;;;;;19.79;54.91;99121.94;5087672;28;20126;-69
2023/06/26 01:57:19;;;;;;;7.95;5.63;;;;;;;19.99;54.29;99117.34;5087824;28;20044;-69
2023/06/26 01:59:48;;;;;;;7.65;5.97;;;;;;;19.85;54.54;99119.53;5087748;28;20107;-69
2023/06/26 02:02:15;;;;;;;6.50;5.80;;;;;;;19.85;54.29;99114.16;5087725;28;20169;-69
2023/06/26 02:04:42;;;;;;;7.07;6.30;;;;;;;19.75;54.81;99112.47;5087996;28;20044;-69
2023/06/26 02:07:10;;;;;;;7.75;6.25;;;;;;;19.68;55.50;99114.06;5087938;28;20110;-68
2023/06/26 02:09:36;;;;;;;7.22;5.47;;;;;;;19.72;55.14;99102.00;5087307;28;20086;-69
2023/06/26 02:12:03;;;;;;;6.13;5.28;;;;;;;19.66;55.47;99107.97;5087572;28;20036;-70
2023/06/26 02:14:30;;;;;;;8.10;5.65;;;;;;;19.58;55.67;99108.72;5087220;28;20308;-69
2023/06/26 02:16:58;;;;;;;6.18;5.57;;;;;;;19.58;55.93;99106.03;5087452;28;20166;-69
2023/06/26 02:19:24;;;;;;;6.88;5.53;;;;;;;19.60;55.97;99100.50;5069511;28;20228;-69
2023/06/26 02:21:51;;;;;;;6.90;5.88;;;;;;;19.55;56.30;99109.88;5087616;28;20059;-68
2023/06/26 02:24:18;;;;;;;6.38;5.25;;;;;;;19.58;56.34;99110.56;5087417;28;20108;-69
2023/06/26 02:26:45;;;;;;;7.40;6.03;;;;;;;19.61;56.15;99107.59;5086956;28;20052;-69
2023/06/26 02:29:12;;;;;;;6.82;6.13;;;;;;;19.52;56.65;99112.84;5086923;28;20040;-69
2023/06/26 02:31:39;;;;;;;6.63;5.80;;;;;;;19.52;55.97;99120.06;5087385;28;20041;-69
2023/06/26 02:34:07;;;;;;;8.85;5.97;;;;;;;19.52;56.32;99115.53;5087021;28;20209;-69
2023/06/26 02:36:34;;;;;;;5.72;5.13;;;;;;;19.51;56.28;99116.53;5087024;28;20052;-69
2023/06/26 02:39:00;;;;;;;6.22;5.20;;;;;;;19.47;56.20;99117.81;5087178;28;20226;-69
2023/06/26 02:41:27;;;;;;;7.95;6.22;;;;;;;19.41;55.84;99113.03;5086338;28;20060;-69
2023/06/26 02:43:54;;;;;;;7.20;5.68;;;;;;;19.39;55.88;99124.91;5086868;28;20048;-69
2023/06/26 02:46:20;;;;;;;7.32;5.22;;;;;;;19.42;55.93;99114.72;5086547;28;20045;-69
2023/06/26 02:48:47;;;;;;;5.68;4.97;;;;;;;19.39;55.63;99127.59;5086649;28;20054;-69
2023/06/26 02:51:15;;;;;;;7.38;4.97;;;;;;;19.35;56.08;99123.47;5086731;28;20297;-69
2023/06/26 02:53:42;;;;;;;7.68;5.25;;;;;;;19.35;55.89;99123.47;5086696;28;20296;-69
2023/06/26 02:56:08;;;;;;;7.07;5.90;;;;;;;19.39;55.69;99123.06;5086455;28;20178;-69
2023/06/26 02:58:35;;;;;;;6.70;5.38;;;;;;;19.33;55.88;99125.47;5069331;28;20052;-69
2023/06/26 03:01:02;;;;;;;5.97;5.20;;;;;;;19.28;56.01;99125.06;5086847;28;20040;-69
2023/06/26 03:03:28;;;;;;;5.50;4.95;;;;;;;19.29;56.18;99122.22;5086410;28;20040;-69
2023/06/26 03:05:55;;;;;;;6.03;4.80;;;;;;;19.32;55.83;99121.94;5086746;28;20052;-69
2023/06/26 03:08:23;;;;;;;6.18;5.57;;;;;;;19.30;55.85;99137.34;5086311;28;20052;-69
2023/06/26 03:10:50;;;;;;;7.15;5.90;;;;;;;19.31;55.84;99131.00;5086371;28;20215;-69
2023/06/26 03:13:17;;;;;;;7.55;4.95;;;;;;;19.30;55.75;99125.75;5086607;28;20049;-69
2023/06/26 03:15:43;;;;;;;6.88;5.40;;;;;;;19.33;55.56;99130.84;5086557;28;20048;-69
2023/06/26 03:18:10;;;;;;;8.48;6.00;;;;;;;19.30;55.14;99129.28;5085995;28;20044;-69
2023/06/26 03:20:37;;;;;;;6.40;5.38;;;;;;;19.38;54.97;99126.72;5084982;28;20044;-69
2023/06/26 03:23:03;;;;;;;8.18;4.68;;;;;;;19.29;55.10;99130.28;5086467;28;20040;-69
2023/06/26 03:25:32;;;;;;;7.50;5.78;;;;;;;19.27;55.56;99132.28;5086121;28;20101;-69
2023/06/26 03:27:58;;;;;;;7.35;5.43;;;;;;;19.26;55.75;99135.94;5086050;28;20334;-69
2023/06/26 03:30:25;;;;;;;8.10;5.15;;;;;;;19.28;55.20;99133.97;5085872;28;20047;-69
2023/06/26 03:32:52;;;;;;;6.18;5.35;;;;;;;19.26;55.59;99135.09;5086243;28;20231;-68
2023/06/26 03:35:18;;;;;;;6.78;5.47;;;;;;;19.23;55.70;99136.25;5086180;28;20060;-69
2023/06/26 03:37:45;;;;;;;6.68;5.75;;;;;;;19.21;55.27;99141.75;5085594;28;20304;-69
2023/06/26 03:40:12;;;;;;;6.20;5.22;;;;;;;19.27;55.17;99129.59;5086072;28;20052;-69
2023/06/26 03:42:40;;;;;;;9.05;6.63;;;;;;;19.29;55.62;99142.88;5085348;28;20212;-69
2023/06/26 03:45:07;;;;;;;8.25;5.70;;;;;;;19.23;55.18;99147.84;5085873;28;20052;-69
2023/06/26 03:47:34;;;;;;;6.43;5.68;;;;;;;19.24;55.54;99143.31;5086101;28;20040;-69
2023/06/26 03:50:00;;;;;;;8.40;5.63;;;;;;;19.28;55.84;99147.41;5085688;28;20045;-69
2023/06/26 03:52:30;;;;;;;7.20;5.93;;;;;;;19.27;55.78;99148.38;5085536;28;20315;-69
2023/06/26 03:54:58;;;;;;;7.07;5.97;;;;;;;19.28;55.75;99142.03;5085725;28;20108;-69
2023/06/26 03:57:24;;;;;;;7.05;5.57;;;;;;;19.26;55.69;99149.38;5085455;28;20115;-69
2023/06/26 03:59:53;;;;;;;7.25;5.55;;;;;;;19.27;56.11;99145.69;5085655;28;20301;-69
2023/06/26 04:02:20;;;;;;;6.75;5.97;;;;;;;19.32;55.43;99146.13;5085961;28;20044;-69
2023/06/26 04:04:46;;;;;;;7.45;5.57;;;;;;;19.39;55.43;99151.78;5085947;28;20045;-69
2023/06/26 04:07:13;;;;;;;7.28;5.53;;;;;;;19.39;55.45;99151.78;5085909;28;20052;-69
2023/06/26 04:09:40;;;;;;;8.32;5.32;;;;;;;19.21;55.47;99132.84;5085487;28;20037;-69
2023/06/26 04:12:07;;;;;;;9.10;5.22;;;;;;;19.33;55.64;99147.81;5085770;28;20106;-69
2023/06/26 04:14:34;;;;;;;9.27;5.50;;;;;;;19.33;56.17;99153.19;5085563;28;20056;-69
2023/06/26 04:17:03;;;;;;;6.38;5.60;;;;;;;19.34;55.83;99154.88;5085541;28;20040;-69
2023/06/26 04:19:30;;;;;;;7.28;5.57;;;;;;;19.41;55.92;99147.13;5085763;28;20037;-69
2023/06/26 04:21:57;;;;;;;6.10;5.47;;;;;;;19.42;55.57;99154.19;5085502;28;20064;-69
2023/06/26 04:24:23;;;;;;;6.22;5.30;;;;;;;19.42;55.38;99152.34;5085801;28;20052;-69
2023/06/26 04:26:50;;;;;;;6.72;5.40;;;;;;;19.46;55.29;99152.91;5085165;28;20102;-69
2023/06/26 04:29:17;;;;;;;6.47;5.80;;;;;;;19.47;55.58;99155.44;5085710;28;20307;-69
2023/06/26 04:31:46;;;;;;;6.28;5.32;;;;;;;19.51;55.38;99154.16;5086032;28;20036;-69
2023/06/26 04:34:14;;;;;;;6.20;5.60;;;;;;;19.38;55.43;99131.25;5071528;28;20036;-69
2023/06/26 04:36:41;;;;;;;8.70;5.43;;;;;;;19.48;55.68;99156.28;5089449;28;20048;-69
2023/06/26 04:39:07;;;;;;;6.25;5.53;;;;;;;19.52;55.57;99152.31;5089517;28;20047;-69
2023/06/26 04:41:35;;;;;;;7.40;5.35;;;;;;;19.52;55.54;99146.94;5089049;28;20072;-69
2023/06/26 04:44:01;;;;;;;6.05;5.32;;;;;;;19.57;55.83;99151.88;5088927;28;20052;-69
2023/06/26 04:46:28;;;;;;;7.13;6.32;;;;;;;19.60;55.48;99149.75;5088874;28;20229;-69
2023/06/26 04:48:57;;;;;;;12.77;6.85;;;;;;;19.61;55.52;99150.59;5089382;28;20079;-69
2023/06/26 04:51:26;;;;;;;8.98;6.68;;;;;;;19.66;55.36;99151.84;5089053;28;20064;-69
2023/06/26 04:53:53;;;;;;;6.93;6.10;;;;;;;19.70;55.28;99160.47;5089323;28;20048;-69
2023/06/26 04:56:20;;;;;;;6.75;5.80;;;;;;;19.69;55.95;99162.31;5088938;28;20097;-69
2023/06/26 04:58:46;;;;;;;8.60;6.25;;;;;;;19.57;56.26;99159.94;5088894;28;20048;-69
2023/06/26 05:01:13;;;;;;;6.72;6.05;;;;;;;19.72;56.30;99166.53;5088763;28;20059;-69
2023/06/26 05:03:40;;;;;;;7.60;6.80;;;;;;;19.74;55.79;99164.56;5088958;28;20063;-69
2023/06/26 05:06:07;;;;;;;6.93;6.22;;;;;;;19.58;55.85;99146.34;5088709;28;20063;-69
2023/06/26 05:08:35;;;;;;;7.00;5.95;;;;;;;19.74;56.04;99162.72;5088877;28;20052;-69
2023/06/26 05:11:02;;;;;;;6.95;6.25;;;;;;;19.71;56.29;99163.00;5088366;28;20036;-69
2023/06/26 05:13:29;;;;;;;8.40;7.32;;;;;;;19.73;56.30;99160.16;5088437;28;20297;-69
2023/06/26 05:15:55;;;;;;;10.73;7.00;;;;;;;19.86;56.14;99163.41;5071037;28;20036;-69
2023/06/26 05:18:22;;;;;;;7.97;7.03;;;;;;;19.86;55.86;99158.88;5088513;28;20090;-69
2023/06/26 05:20:49;;;;;;;7.25;6.18;;;;;;;19.92;56.20;99160.13;5088147;28;20224;-69
2023/06/26 05:23:17;;;;;;;7.78;6.97;;;;;;;19.97;55.72;99155.13;5088461;28;20170;-69
2023/06/26 05:25:46;;;;;;;8.98;6.68;;;;;;;19.99;55.75;99166.59;5088087;28;20044;-69
2023/06/26 05:28:15;;;;;;;7.53;6.18;;;;;;;19.96;55.80;99161.53;5088638;28;20119;-69
2023/06/26 05:30:42;;;;;;;8.48;6.90;;;;;;;20.03;55.79;99159.94;5088206;28;20058;-69
2023/06/26 05:33:12;;;;;;;7.65;6.20;;;;;;;20.10;55.86;99152.94;5088026;28;20032;-69
2023/06/26 05:35:39;;;;;;;7.10;6.40;;;;;;;20.11;55.71;99160.03;5088213;28;20044;-69
2023/06/26 05:38:07;;;;;;;10.35;7.53;;;;;;;20.18;55.68;99161.13;5087866;28;20044;-69
2023/06/26 05:40:34;;;;;;;7.90;6.80;;;;;;;20.16;55.59;99162.25;5070532;28;20033;-69
2023/06/26 05:43:04;;;;;;;9.10;6.40;;;;;;;20.21;54.99;99164.50;5086831;28;20052;-69
2023/06/26 05:45:30;;;;;;;8.05;6.10;;;;;;;20.26;54.63;99159.56;5088199;28;20044;-69
2023/06/26 05:47:57;;;;;;;6.90;5.85;;;;;;;20.26;54.79;99162.25;5087654;28;20078;-69
2023/06/26 05:50:24;;;;;;;7.20;6.40;;;;;;;20.28;55.00;99166.47;5088177;28;20044;-69
2023/06/26 05:52:52;;;;;;;7.07;6.22;;;;;;;20.34;54.80;99163.19;5088159;28;20036;-69
2023/06/26 05:55:19;;;;;;;8.70;6.95;;;;;;;20.34;54.56;99165.88;5087911;28;20040;-69
2023/06/26 05:57:47;;;;;;;7.03;6.32;;;;;;;20.39;54.30;99154.66;5087714;28;20239;-69
2023/06/26 06:00:16;;;;;;;6.78;5.90;;;;;;;20.44;52.69;99160.44;5069800;28;20265;-69
2023/06/26 06:02:44;;;;;;;8.48;6.45;;;;;;;20.49;54.29;99152.75;5087745;28;20289;-69
2023/06/26 06:05:10;;;;;;;7.53;6.32;;;;;;;20.50;54.08;99149.91;5087661;28;20071;-69
2023/06/26 06:07:37;;;;;;;8.18;5.90;;;;;;;20.53;53.27;99159.50;5069723;28;20044;-69
2023/06/26 06:10:05;;;;;;;7.47;5.15;;;;;;;20.53;52.49;99151.44;5087344;28;20041;-69
2023/06/26 06:12:31;;;;;;;5.97;4.60;;;;;;;20.52;52.44;99151.59;5087812;28;20102;-69
2023/06/26 06:14:58;;;;;;;6.72;5.00;;;;;;;20.57;52.69;99152.81;5087420;28;20045;-69
2023/06/26 06:17:26;;;;;;;6.00;5.20;;;;;;;20.63;53.29;99149.53;5087365;28;20070;-69
2023/06/26 06:19:53;;;;;;;6.53;5.78;;;;;;;20.64;53.29;99142.28;5069389;28;20044;-69
2023/06/26 06:22:19;;;;;;;9.00;6.60;;;;;;;20.67;53.52;99152.75;5087399;28;20048;-69
2023/06/26 06:24:46;;;;;;;8.13;7.32;;;;;;;20.67;53.04;99150.06;5087215;28;20048;-69
2023/06/26 06:27:13;;;;;;;6.65;5.88;;;;;;;20.75;53.07;99153.69;5087089;28;20313;-69
2023/06/26 06:29:40;;;;;;;8.23;6.10;;;;;;;20.72;53.62;99145.91;5087887;28;20036;-69
2023/06/26 06:32:07;;;;;;;8.45;6.35;;;;;;;20.76;52.77;99152.66;5087075;28;20052;-69
2023/06/26 06:34:35;;;;;;;5.95;5.35;;;;;;;20.80;52.30;99151.38;5086720;28;20052;-69
2023/06/26 06:37:03;;;;;;;5.47;4.70;;;;;;;20.81;52.15;99146.81;5086649;28;20046;-69
2023/06/26 06:39:30;;;;;;;7.63;5.57;;;;;;;20.91;51.88;99150.28;5086614;28;20063;-69
2023/06/26 06:41:57;;;;;;;5.75;5.15;;;;;;;20.95;51.11;99143.59;5065379;28;20380;-69
2023/06/26 06:44:24;;;;;;;8.20;5.15;;;;;;;21.00;51.21;99145.81;5066300;28;20036;-69
2023/06/26 06:46:50;;;;;;;7.97;5.20;;;;;;;21.08;50.13;99145.91;5066585;28;20115;-69
2023/06/26 06:49:17;;;;;;;6.88;5.20;;;;;;;21.11;49.58;99149.13;5066898;28;20048;-69
2023/06/26 06:51:45;;;;;;;6.95;5.70;;;;;;;21.14;50.06;99148.81;5066664;28;20037;-69
2023/06/26 06:54:12;;;;;;;6.70;4.97;;;;;;;21.19;50.19;99142.97;5066888;28;20044;-69
2023/06/26 06:56:39;;;;;;;7.65;5.32;;;;;;;21.30;50.29;99150.78;5066506;28;20110;-69
2023/06/26 06:59:06;;;;;;;6.93;4.93;;;;;;;21.41;49.35;99142.44;5066181;28;20045;-69
2023/06/26 07:01:33;;;;;;;5.60;4.93;;;;;;;21.46;49.38;99145.50;5066739;28;20033;-69
2023/06/26 07:03:59;;;;;;;8.05;5.53;;;;;;;21.45;49.22;99141.13;5066238;28;20323;-70
2023/06/26 07:06:26;;;;;;;7.95;4.70;;;;;;;21.57;48.98;99143.53;5066684;28;20040;-69
2023/06/26 07:08:54;;;;;;;6.47;4.78;;;;;;;21.68;49.13;99149.50;5066613;28;20047;-69
2023/06/26 07:11:21;;;;;;;5.72;4.40;;;;;;;21.64;48.88;99140.06;5066613;28;20055;-69
2023/06/26 07:13:48;;;;;;;6.10;4.68;;;;;;;21.86;48.64;99145.94;5065001;28;20047;-69
2023/06/26 07:16:14;;;;;;;5.38;4.75;;;;;;;21.94;48.34;99137.88;5065440;28;20091;-69
2023/06/26 07:18:41;;;;;;;5.70;4.70;;;;;;;22.06;48.26;99140.09;5066135;28;20099;-69
2023/06/26 07:21:09;;;;;;;6.70;4.72;;;;;;;22.18;47.24;99143.34;5066227;28;20079;-69
2023/06/26 07:23:35;;;;;;;8.15;5.07;;;;;;;22.38;47.88;99141.22;5065926;28;20037;-69
2023/06/26 07:26:04;;;;;;;6.82;4.15;;;;;;;22.55;47.06;99140.31;5066262;28;20049;-70
2023/06/26 07:28:30;;;;;;;6.63;4.95;;;;;;;22.64;47.80;99142.00;5066318;28;20041;-69
2023/06/26 07:30:57;;;;;;;6.07;5.15;;;;;;;22.86;47.15;99143.22;5065883;28;20193;-69
2023/06/26 07:33:24;;;;;;;7.40;4.03;;;;;;;23.02;44.67;99143.22;5066031;28;20052;-70
2023/06/26 07:35:51;;;;;;;6.20;5.45;;;;;;;22.97;44.18;99139.34;5065871;28;20043;-69
2023/06/26 07:38:18;;;;;;;5.80;4.45;;;;;;;22.86;45.24;99145.06;5066071;28;20052;-69
2023/06/26 07:40:44;;;;;;;6.47;4.80;;;;;;;23.05;44.21;99145.59;5065695;28;20049;-70
2023/06/26 07:43:12;;;;;;;6.07;5.47;;;;;;;23.35;44.66;99149.47;5085449;28;20305;-69
2023/06/26 07:45:39;;;;;;;7.15;4.68;;;;;;;23.68;43.28;99136.72;5085646;28;20043;-69
2023/06/26 07:48:07;;;;;;;6.18;4.38;;;;;;;23.74;43.63;99137.91;5085991;28;20048;-70
2023/06/26 07:50:34;;;;;;;5.55;4.28;;;;;;;23.88;43.37;99139.88;5085542;28;20047;-70
2023/06/26 07:53:00;;;;;;;7.80;5.53;;;;;;;24.11;42.71;99139.16;5085577;28;20041;-70
2023/06/26 07:55:27;;;;;;;6.60;4.70;;;;;;;24.34;42.81;99134.63;5085221;28;20048;-70
2023/06/26 07:57:55;;;;;;;6.78;4.78;;;;;;;24.53;42.31;99130.63;5085466;28;20040;-69
2023/06/26 08:00:23;;;;;;;5.32;4.80;;;;;;;24.63;41.44;99134.78;5067824;28;20044;-69
2023/06/26 08:02:50;;;;;;;5.68;4.30;;;;;;;24.49;41.47;99135.56;5085675;28;20331;-70
2023/06/26 08:05:17;;;;;;;6.07;4.80;;;;;;;24.41;42.21;99143.72;5085307;28;20103;-70
2023/06/26 08:07:43;;;;;;;5.55;4.03;;;;;;;24.61;42.37;99128.69;5084934;28;20040;-70
2023/06/26 08:10:10;;;;;;;5.53;4.78;;;;;;;24.78;41.18;99131.31;5085616;28;20048;-70
2023/06/26 08:12:40;;;;;;;8.32;4.63;;;;;;;24.50;41.70;99088.47;5085492;28;20120;-70
2023/06/26 08:15:07;;;;;;;6.95;4.85;;;;;;;24.83;41.80;99134.34;5085663;28;20090;-70
2023/06/26 08:17:36;;;;;;;6.68;4.75;;;;;;;25.13;40.87;99121.75;5085825;28;20059;-70
2023/06/26 08:20:04;;;;;;;6.75;4.95;;;;;;;25.42;40.50;99124.53;5085552;28;20044;-70
2023/06/26 08:22:31;;;;;;;6.35;5.60;;;;;;;25.30;40.24;99125.16;5085439;28;20032;-70
2023/06/26 08:24:58;;;;;;;7.90;5.10;;;;;;;25.50;40.17;99123.63;5085406;28;20048;-70
2023/06/26 08:27:24;;;;;;;9.00;5.63;;;;;;;25.79;40.29;99123.63;5085122;28;20047;-70
2023/06/26 08:29:51;;;;;;;8.57;5.60;;;;;;;25.95;39.69;99113.59;5085189;28;20044;-70
2023/06/26 08:32:18;;;;;;;5.63;4.97;;;;;;;26.17;39.15;99118.09;5085342;28;20280;-70
2023/06/26 08:34:46;;;;;;;7.20;5.57;;;;;;;26.39;38.98;99111.69;5085076;28;20036;-70
2023/06/26 08:37:12;;;;;;;6.15;5.50;;;;;;;26.40;39.17;99112.53;5085588;28;20195;-70
2023/06/26 08:39:39;;;;;;;7.60;5.70;;;;;;;26.55;39.93;99106.00;5085562;28;20049;-70
2023/06/26 08:42:06;;;;;;;9.43;5.90;;;;;;;26.71;39.26;99112.25;5084776;28;20053;-70
2023/06/26 08:44:33;;;;;;;6.68;5.40;;;;;;;26.79;39.75;99112.97;5085265;28;20253;-70
2023/06/26 08:47:01;;;;;;;6.25;5.65;;;;;;;26.99;40.07;99118.59;5085183;28;20109;-70
2023/06/26 08:49:35;;;;;;;7.70;5.75;;;;;;;27.14;39.56;99111.19;5085068;28;20239;-70
2023/06/26 08:52:11;;;;;;;5.65;4.82;;;;;;;26.99;39.03;99115.03;5085915;28;20036;-70
2023/06/26 08:54:46;;;;;;;7.03;5.22;;;;;;;26.97;39.00;99108.94;5085397;28;20041;-70
2023/06/26 08:57:15;;;;;;;5.05;4.53;;;;;;;27.01;38.94;99105.63;5085465;28;20062;-70
2023/06/26 08:59:42;;;;;;;8.35;4.75;;;;;;;26.99;38.37;99102.28;5084805;28;20036;-70
2023/06/26 09:02:09;;;;;;;8.00;6.72;;;;;;;26.88;38.49;99094.63;5085000;28;20037;-70
2023/06/26 09:04:36;;;;;;;6.75;5.70;;;;;;;27.06;37.37;99097.72;5084929;28;20305;-70
2023/06/26 09:07:05;;;;;;;5.95;5.13;;;;;;;27.26;37.97;99087.03;5067110;28;20221;-70
2023/06/26 09:09:31;;;;;;;5.40;4.35;;;;;;;27.19;38.16;99094.28;5084649;28;20093;-70
2023/06/26 09:11:58;;;;;;;6.18;4.90;;;;;;;27.32;38.04;99091.69;5085244;28;20049;-69
2023/06/26 09:14:25;;;;;;;6.03;5.30;;;;;;;27.33;38.34;99082.47;5084588;28;20067;-70
2023/06/26 09:16:52;;;;;;;6.07;5.13;;;;;;;27.21;37.45;99094.91;5084493;28;20051;-70
2023/06/26 09:19:19;;;;;;;6.72;4.95;;;;;;;27.47;37.45;99089.69;5086701;28;20044;-70
2023/06/26 09:21:46;;;;;;;6.07;5.45;;;;;;;27.67;37.11;99089.84;5088606;28;20093;-70
2023/06/26 09:24:14;;;;;;;6.35;5.60;;;;;;;27.85;36.78;99081.16;5088505;28;20090;-70
2023/06/26 09:26:41;;;;;;;6.22;5.63;;;;;;;27.74;36.67;99082.56;5088130;28;20045;-70
2023/06/26 09:29:08;;;;;;;7.55;4.88;;;;;;;27.79;36.49;99081.94;5088047;28;20044;-70
2023/06/26 09:31:37;;;;;;;6.05;5.35;;;;;;;27.99;37.24;99084.78;5088400;28;20047;-70
2023/06/26 09:34:04;;;;;;;6.72;5.22;;;;;;;27.98;36.27;99080.41;5088031;28;20048;-69
2023/06/26 09:36:32;;;;;;;5.90;5.00;;;;;;;28.13;35.95;99081.09;5070854;28;20120;-70
2023/06/26 09:39:00;;;;;;;5.40;4.90;;;;;;;28.24;35.52;99083.22;5088395;28;20200;-70
2023/06/26 09:41:30;;;;;;;6.30;5.65;;;;;;;28.26;36.42;99072.94;5087615;28;20052;-70
2023/06/26 09:44:02;;;;;;;6.43;5.25;;;;;;;27.95;36.38;99084.38;5087772;28;20048;-70
2023/06/26 09:46:29;;;;;;;6.55;5.45;;;;;;;28.17;35.91;99043.38;5087659;28;20343;-70
2023/06/26 09:49:01;;;;;;;5.80;4.57;;;;;;;28.30;36.00;99067.94;5070471;28;20040;-70
2023/06/26 09:51:30;;;;;;;5.85;4.82;;;;;;;28.37;35.55;99066.91;5087851;28;20049;-70
2023/06/26 09:53:57;;;;;;;8.60;5.38;;;;;;;28.56;35.23;99059.00;5087496;28;20255;-70
2023/06/26 09:56:23;;;;;;;5.55;5.05;;;;;;;28.38;35.02;99065.84;5087189;28;20040;-70
2023/06/26 09:58:52;;;;;;;7.47;5.30;;;;;;;28.51;35.28;99064.25;5086825;28;20055;-70
2023/06/26 10:01:19;;;;;;;7.03;5.28;;;;;;;28.50;34.67;99038.03;5068966;28;20036;-70
2023/06/26 10:03:45;;;;;;;6.05;4.35;;;;;;;28.59;34.28;99059.44;5087519;28;20154;-70
2023/06/26 10:06:13;;;;;;;6.32;5.05;;;;;;;28.72;35.32;99059.44;5086866;28;20062;-70
2023/06/26 10:08:41;;;;;;;6.70;4.53;;;;;;;28.54;34.77;99029.22;5087167;28;20045;-70
2023/06/26 10:11:12;;;;;;;5.22;4.60;;;;;;;28.66;34.12;99057.56;5086746;28;20040;-70
2023/06/26 10:13:40;;;;;;;6.82;5.57;;;;;;;28.67;33.95;99048.31;5086600;28;20052;-70
2023/06/26 10:16:10;;;;;;;5.82;4.53;;;;;;;28.88;34.63;99058.19;5086524;28;20184;-70
2023/06/26 10:18:39;;;;;;;5.53;4.50;;;;;;;28.72;35.06;99048.53;5086722;28;20066;-70
2023/06/26 10:21:07;;;;;;;5.75;4.60;;;;;;;28.77;33.80;99043.28;5086628;28;20048;-70
2023/06/26 10:23:35;;;;;;;5.90;4.18;;;;;;;28.85;33.91;99041.41;5086548;28;20037;-70
2023/06/26 10:26:02;;;;;;;7.78;5.05;;;;;;;28.98;34.32;99034.06;5087406;28;20174;-70
2023/06/26 10:28:30;;;;;;;7.10;5.13;;;;;;;28.88;33.74;99038.25;5086864;28;20044;-70
2023/06/26 10:30:58;;;;;;;9.02;6.10;;;;;;;28.99;34.50;99027.56;5086142;28;20040;-70
2023/06/26 10:33:26;;;;;;;6.07;5.25;;;;;;;28.87;33.68;99040.16;5086652;28;20304;-70
2023/06/26 10:35:53;;;;;;;6.68;5.90;;;;;;;28.73;33.80;99027.56;5087242;28;20055;-70
2023/06/26 10:38:20;;;;;;;7.45;6.50;;;;;;;28.95;34.25;99023.56;5086856;28;20090;-70
2023/06/26 10:40:49;;;;;;;7.70;6.95;;;;;;;29.18;34.01;99025.06;5086754;28;20199;-70
2023/06/26 10:43:18;;;;;;;4.75;4.22;;;;;;;28.97;34.20;99024.19;5046761;28;20049;-70
2023/06/26 10:45:46;;;;;;;6.70;6.10;;;;;;;28.81;33.04;98980.16;5046422;28;20045;-70
2023/06/26 10:48:16;;;;;;;8.20;5.20;;;;;;;28.71;33.45;98989.59;5046277;28;20041;-70
2023/06/26 10:50:48;;;;;;;5.55;4.80;;;;;;;29.12;32.92;99026.75;5046767;28;20050;-70
2023/06/26 10:53:24;;;;;;;6.88;5.13;;;;;;;29.26;33.87;99024.81;5046886;28;20087;-70
2023/06/26 10:55:56;;;;;;;7.38;6.03;;;;;;;29.28;33.33;99011.81;5046312;28;20069;-70
2023/06/26 10:58:39;;;;;;;6.95;5.47;;;;;;;29.28;32.78;99017.28;5046220;28;20087;-70
2023/06/26 11:01:24;;;;;;;5.70;4.95;;;;;;;29.26;33.02;99012.03;5046138;28;20053;-70
2023/06/26 11:04:04;;;;;;;6.15;4.90;;;;;;;29.40;32.90;99016.41;5046652;28;20046;-70
2023/06/26 11:06:34;;;;;;;5.22;4.70;;;;;;;29.42;32.36;99012.63;5046700;28;20105;-70
2023/06/26 11:09:06;;;;;;;6.72;4.70;;;;;;;28.94;32.24;98933.78;5046388;28;20054;-70
2023/06/26 11:12:08;;;;;;;8.70;5.68;;;;;;;29.47;32.56;99012.81;5046310;28;20060;-70
2023/06/26 11:14:34;;;;;;;6.20;5.60;;;;;;;29.57;32.35;99007.75;5046398;28;20049;-70
2023/06/26 11:17:05;;;;;;;8.43;5.28;;;;;;;29.35;33.11;98961.63;5045834;28;20059;-70
2023/06/26 11:19:31;;;;;;;9.57;6.20;;;;;;;29.68;33.14;99007.09;5045687;28;20037;-70
2023/06/26 11:22:05;;;;;;;8.10;5.60;;;;;;;29.76;32.82;99011.47;5046269;28;20060;-70
2023/06/26 11:24:32;;;;;;;;;;;;;;;29.53;32.37;99003.75;5046497;28;20288;-70
2023/06/26 11:27:03;;;;;;;7.15;5.10;;;;;;;29.68;33.40;99007.94;5045871;28;20173;-70
2023/06/26 11:29:31;;;;;;;8.10;5.30;;;;;;;29.70;32.86;98994.06;5045709;28;20048;-70
2023/06/26 11:32:03;;;;;;;7.18;5.18;;;;;;;29.74;32.50;99010.84;5045811;28;20205;-70
2023/06/26 11:34:34;;;;;;;5.07;3.65;;;;;;;29.52;32.34;98997.47;5046291;28;20045;-70
2023/06/26 11:37:03;;;;;;;7.70;6.00;;;;;;;29.23;33.03;98992.50;5045969;28;20064;-70